createdAt,value
2019-02-26T00:00:56.493Z,23.60
2019-02-26T00:06:04.844Z,22.30
2019-02-26T00:11:11.346Z,27.40
2019-02-26T00:16:20.556Z,28.63
2019-02-26T00:21:29.299Z,29.10
2019-02-26T00:26:38.475Z,31.27
2019-02-26T00:31:46.057Z,30.30
2019-02-26T00:36:53.397Z,28.30
2019-02-26T00:42:02.742Z,26.83
2019-02-26T00:47:10.475Z,27.37
2019-02-26T00:52:17.559Z,27.47
2019-02-26T00:57:27.145Z,27.73
2019-02-26T01:02:31.762Z,27.00
2019-02-26T01:07:38.562Z,30.57
2019-02-26T01:12:44.757Z,29.70
2019-02-26T01:17:51.763Z,30.10
2019-02-26T01:22:58.839Z,28.37
2019-02-26T01:28:05.174Z,29.07
2019-02-26T01:33:11.618Z,28.27
2019-02-26T01:38:18.907Z,30.53
2019-02-26T01:43:26.442Z,30.67
2019-02-26T01:48:34.345Z,29.57
2019-02-26T01:53:42.255Z,29.67
2019-02-26T01:58:56.322Z,27.87
2019-02-26T02:03:57.824Z,26.87
2019-02-26T02:09:04.073Z,26.87
2019-02-26T02:14:12.749Z,26.63
2019-02-26T02:19:22.645Z,26.23
2019-02-26T02:24:29.352Z,27.50
2019-02-26T02:29:36.531Z,24.13
2019-02-26T02:34:43.106Z,27.53
2019-02-26T02:39:50.830Z,26.97
2019-02-26T02:44:58.737Z,25.90
2019-02-26T02:50:08.711Z,28.10
2019-02-26T02:55:16.103Z,28.53
2019-02-26T03:00:23.909Z,28.87
2019-02-26T03:05:31.493Z,25.67
2019-02-26T03:10:40.287Z,23.67
2019-02-26T03:15:47.603Z,21.67
2019-02-26T03:20:56.578Z,17.97
2019-02-26T03:26:02.304Z,18.80
2019-02-26T03:31:10.474Z,17.37
2019-02-26T03:36:19.678Z,18.30
2019-02-26T03:41:28.851Z,18.93
2019-02-26T03:46:34.517Z,19.63
2019-02-26T03:51:41.760Z,18.70
2019-02-26T03:56:49.022Z,18.60
2019-02-26T04:01:55.179Z,18.10
2019-02-26T04:07:04.284Z,19.10
2019-02-26T04:12:13.575Z,15.03
2019-02-26T04:17:23.187Z,17.43
2019-02-26T04:22:30.493Z,14.50
2019-02-26T04:28:10.923Z,12.37
2019-02-26T04:34:13.354Z,13.17
2019-02-26T04:39:40.327Z,12.30
2019-02-26T04:45:22.541Z,11.83
2019-02-26T04:50:34.989Z,12.13
2019-02-26T04:55:41.332Z,14.23
2019-02-26T05:00:46.813Z,21.40
2019-02-26T05:05:56.038Z,21.40
2019-02-26T05:11:01.202Z,21.77
2019-02-26T05:16:08.718Z,20.87
2019-02-26T05:21:15.114Z,21.57
2019-02-26T05:26:21.368Z,20.53
2019-02-26T05:31:29.750Z,20.73
2019-02-26T05:36:39.100Z,19.67
2019-02-26T05:41:44.276Z,19.03
2019-02-26T05:46:53.999Z,19.10
2019-02-26T05:52:02.119Z,20.70
2019-02-26T05:57:25.519Z,17.73
2019-02-26T06:02:19.548Z,17.60
2019-02-26T06:07:29.736Z,15.63
2019-02-26T06:12:35.479Z,15.90
2019-02-26T06:17:45.237Z,13.97
2019-02-26T06:22:52.240Z,14.77
2019-02-26T06:28:04.526Z,17.63
2019-02-26T06:33:11.647Z,14.53
2019-02-26T06:38:17.682Z,14.50
2019-02-26T06:43:24.167Z,15.47
2019-02-26T06:48:32.359Z,20.33
2019-02-26T06:53:39.710Z,16.87
2019-02-26T06:58:47.436Z,16.93
2019-02-26T07:03:55.771Z,16.03
2019-02-26T07:09:02.094Z,16.87
2019-02-26T07:14:10.312Z,17.07
2019-02-26T07:19:17.670Z,16.60
2019-02-26T07:24:24.840Z,18.33
2019-02-26T07:29:33.221Z,15.93
2019-02-26T07:34:42.795Z,18.10
2019-02-26T07:39:51.437Z,18.80
2019-02-26T07:44:58.865Z,15.97
2019-02-26T07:50:06.792Z,16.53
2019-02-26T07:55:15.342Z,15.40
2019-02-26T08:00:23.343Z,18.30
2019-02-26T08:05:32.418Z,11.23
2019-02-26T08:10:42.861Z,11.50
2019-02-26T08:15:49.899Z,13.57
2019-02-26T08:21:00.733Z,13.23
2019-02-26T08:26:07.623Z,16.70
2019-02-26T08:31:17.856Z,18.70
2019-02-26T08:36:23.649Z,19.40
2019-02-26T08:41:31.338Z,17.63
2019-02-26T08:46:39.868Z,16.43
2019-02-26T08:51:47.463Z,16.53
2019-02-26T08:56:53.918Z,17.80
2019-02-26T09:02:01.329Z,14.87
2019-02-26T09:07:08.982Z,15.77
2019-02-26T09:12:17.383Z,12.90
2019-02-26T09:17:26.683Z,11.27
2019-02-26T09:22:31.523Z,12.93
2019-02-26T09:27:42.752Z,14.73
2019-02-26T09:32:47.587Z,13.00
2019-02-26T09:37:57.123Z,15.13
2019-02-26T09:43:02.895Z,13.90
2019-02-26T09:48:10.419Z,13.17
2019-02-26T09:53:18.085Z,16.87
2019-02-26T09:58:25.350Z,14.33
2019-02-26T10:03:36.255Z,12.37
2019-02-26T10:08:40.935Z,11.70
2019-02-26T10:13:51.237Z,13.10
2019-02-26T10:18:58.148Z,12.43
2019-02-26T10:24:04.732Z,11.53
2019-02-26T10:29:12.686Z,13.80
2019-02-26T10:34:25.492Z,16.33
2019-02-26T10:39:32.115Z,12.20
2019-02-26T10:44:39.667Z,12.73
2019-02-26T10:49:46.828Z,11.40
2019-02-26T10:54:54.583Z,11.97
2019-02-26T11:00:02.578Z,12.53
2019-02-26T11:05:11.245Z,12.07
2019-02-26T11:10:20.824Z,11.67
2019-02-26T11:15:31.075Z,12.47
2019-02-26T11:20:36.833Z,13.47
2019-02-26T11:25:43.243Z,12.20
2019-02-26T11:30:53.694Z,13.57
2019-02-26T11:35:59.671Z,12.47
2019-02-26T11:41:06.827Z,12.70
2019-02-26T11:46:15.115Z,11.73
2019-02-26T11:51:21.546Z,12.67
2019-02-26T11:56:28.248Z,14.57
2019-02-26T12:01:36.851Z,13.73
2019-02-26T12:06:42.570Z,14.57
2019-02-26T12:11:49.811Z,14.53
2019-02-26T12:16:57.410Z,14.90
2019-02-26T12:22:05.858Z,15.77
2019-02-26T12:27:18.095Z,14.53
2019-02-26T12:32:24.360Z,14.97
2019-02-26T12:37:31.368Z,14.03
2019-02-26T12:42:39.038Z,14.43
2019-02-26T12:47:48.726Z,13.93
2019-02-26T12:52:56.852Z,12.93
2019-02-26T12:58:02.080Z,14.17
2019-02-26T13:03:12.685Z,14.23
2019-02-26T13:08:20.529Z,15.07
2019-02-26T13:13:28.760Z,12.23
2019-02-26T13:18:34.933Z,13.50
2019-02-26T13:23:43.186Z,14.83
2019-02-26T13:28:52.773Z,13.10
2019-02-26T13:34:00.413Z,13.23
2019-02-26T13:39:08.904Z,14.77
2019-02-26T13:44:15.297Z,14.40
2019-02-26T13:49:21.683Z,14.70
2019-02-26T13:54:28.067Z,14.20
2019-02-26T13:59:34.495Z,15.10
2019-02-26T14:04:42.319Z,17.43
2019-02-26T14:09:50.358Z,14.47
2019-02-26T14:14:56.638Z,15.03
2019-02-26T14:20:03.684Z,13.83
2019-02-26T14:25:11.794Z,14.67
2019-02-26T14:30:18.811Z,24.40
2019-02-26T14:35:26.181Z,17.23
2019-02-26T14:40:32.586Z,14.20
2019-02-26T14:45:40.589Z,14.10
2019-02-26T14:50:48.737Z,13.27
2019-02-26T14:55:55.460Z,14.13
2019-02-26T15:01:04.468Z,14.73
2019-02-26T15:06:12.080Z,13.07
2019-02-26T15:11:20.318Z,14.60
2019-02-26T15:16:26.737Z,12.23
2019-02-26T15:21:33.191Z,12.70
2019-02-26T15:26:41.439Z,12.83
2019-02-26T15:31:48.986Z,13.57
2019-02-26T15:36:57.892Z,12.50
2019-02-26T15:42:04.673Z,12.47
2019-02-26T15:47:11.347Z,11.00
2019-02-26T15:52:21.522Z,13.23
2019-02-26T15:57:28.552Z,11.33
2019-02-26T16:02:36.754Z,14.17
2019-02-26T16:07:43.051Z,12.40
2019-02-26T16:12:50.551Z,14.30
2019-02-26T16:17:59.016Z,11.83
2019-02-26T16:23:07.712Z,12.83
2019-02-26T16:28:14.115Z,13.37
2019-02-26T16:33:21.380Z,11.90
2019-02-26T16:38:27.827Z,10.93
2019-02-26T16:43:34.069Z,12.30
2019-02-26T16:48:41.609Z,11.43
2019-02-26T16:53:49.115Z,10.67
2019-02-26T16:58:56.878Z,11.47
2019-02-26T17:04:05.602Z,13.37
2019-02-26T17:09:12.078Z,11.60
2019-02-26T17:14:21.755Z,12.80
2019-02-26T17:19:29.116Z,12.60
2019-02-26T17:24:36.795Z,12.17
2019-02-26T17:29:44.037Z,14.53
2019-02-26T17:34:53.789Z,11.70
2019-02-26T17:40:03.310Z,12.93
2019-02-26T17:45:11.656Z,12.27
2019-02-26T17:50:23.979Z,13.17
2019-02-26T17:55:31.730Z,13.53
2019-02-26T18:00:40.972Z,13.67
2019-02-26T18:05:51.618Z,13.03
2019-02-26T18:10:58.491Z,12.83
2019-02-26T18:16:09.140Z,12.70
2019-02-26T18:21:13.942Z,12.83
2019-02-26T18:26:21.535Z,13.60
2019-02-26T18:31:31.191Z,13.60
2019-02-26T18:36:39.205Z,12.90
2019-02-26T18:41:50.674Z,12.80
2019-02-26T18:46:54.862Z,13.07
2019-02-26T18:52:01.497Z,13.67
2019-02-26T18:57:11.297Z,12.90
2019-02-26T19:02:17.603Z,12.10
2019-02-26T19:07:24.008Z,13.40
2019-02-26T19:12:31.487Z,13.30
2019-02-26T19:17:38.812Z,12.67
2019-02-26T19:22:46.053Z,19.07
2019-02-26T19:27:53.066Z,13.43
2019-02-26T19:33:09.309Z,14.03
2019-02-26T19:38:16.901Z,13.53
2019-02-26T19:43:23.798Z,13.53
2019-02-26T19:48:33.855Z,15.00
2019-02-26T19:53:41.148Z,12.83
2019-02-26T19:58:48.182Z,13.03
2019-02-26T20:03:54.599Z,14.30
2019-02-26T20:09:05.749Z,14.30
2019-02-26T20:14:11.576Z,13.70
2019-02-26T20:19:18.759Z,14.37
2019-02-26T20:24:26.251Z,14.40
2019-02-26T20:29:32.806Z,15.20
2019-02-26T20:34:40.673Z,14.10
2019-02-26T20:39:48.277Z,16.00
2019-02-26T20:44:59.025Z,37.63
2019-02-26T20:50:02.421Z,19.10
2019-02-26T20:55:10.955Z,16.40
2019-02-26T21:00:19.442Z,16.97
2019-02-26T21:05:27.656Z,16.03
2019-02-26T21:10:34.111Z,17.50
2019-02-26T21:15:41.349Z,17.17
2019-02-26T21:20:49.290Z,17.83
2019-02-26T21:25:57.134Z,18.67
2019-02-26T21:31:03.398Z,18.83
2019-02-26T21:36:11.125Z,18.73
2019-02-26T21:41:21.060Z,18.20
2019-02-26T21:46:29.408Z,19.10
2019-02-26T21:51:36.932Z,18.17
2019-02-26T21:56:43.106Z,17.77
2019-02-26T22:01:50.554Z,15.63
2019-02-26T22:06:58.127Z,17.47
2019-02-26T22:12:04.458Z,16.63
2019-02-26T22:17:11.066Z,17.53
2019-02-26T22:22:18.696Z,15.90
2019-02-26T22:27:25.214Z,17.07
2019-02-26T22:32:32.688Z,17.17
2019-02-26T22:37:41.474Z,15.90
2019-02-26T22:42:48.803Z,15.97
2019-02-26T22:47:54.823Z,15.43
2019-02-26T22:53:03.784Z,14.07
2019-02-26T22:58:09.811Z,14.43
2019-02-26T23:03:17.594Z,14.67
2019-02-26T23:08:23.797Z,13.63
2019-02-26T23:13:32.573Z,14.13
2019-02-26T23:18:40.516Z,12.73
2019-02-26T23:23:47.828Z,12.47
2019-02-26T23:28:54.854Z,12.33
2019-02-26T23:34:02.267Z,12.00
2019-02-26T23:39:12.651Z,10.93
2019-02-26T23:44:20.272Z,10.57
2019-02-26T23:49:26.747Z,11.43
2019-02-26T23:54:33.966Z,11.03
2019-02-26T23:59:41.417Z,11.00
